Time;durP1;ratioP1;P1;durP2;ratioP2;P2;SDS_P1;SDS_P2;PMS_P1;PMS_P2;Temp;Humidity;BMP_temperature;BMP_pressure;BME280_temperature;BME280_humidity;BME280_pressure;Samples;Min_cycle;Max_cycle;Signal;HPM_P1;HPM_P2
2023/06/12 00:01:48;;;;;;;;;20.00;18.25;;;;;23.40;65.52;101061.81;5097063;27;45498;-46
2023/06/12 00:04:13;;;;;;;;;23.25;17.50;;;;;23.41;65.62;101059.91;5097832;27;46128;-48
2023/06/12 00:06:39;;;;;;;;;18.50;16.75;;;;;23.36;65.59;101055.16;5097744;27;45417;-45
2023/06/12 00:09:05;;;;;;;;;20.25;18.00;;;;;23.42;65.68;101065.09;5097837;27;45201;-45
2023/06/12 00:11:30;;;;;;;;;24.75;19.75;;;;;23.37;65.48;101059.53;5097924;27;45304;-48
2023/06/12 00:13:56;;;;;;;;;17.50;15.25;;;;;23.40;65.12;101067.22;5097289;27;46011;-47
2023/06/12 00:16:22;;;;;;;;;19.75;16.75;;;;;23.34;65.75;101048.28;5097621;27;45288;-47
2023/06/12 00:18:49;;;;;;;;;19.25;17.75;;;;;23.37;65.13;101061.41;5097618;27;45381;-48
2023/06/12 00:21:14;;;;;;;;;18.50;16.50;;;;;23.39;65.52;101070.19;5097702;27;45373;-49
2023/06/12 00:23:41;;;;;;;;;23.00;16.00;;;;;23.38;65.42;101063.06;5097533;27;46297;-49
2023/06/12 00:26:06;;;;;;;;;21.80;19.60;;;;;23.37;65.41;101064.13;5097002;27;45349;-49
2023/06/12 00:28:32;;;;;;;;;23.75;17.75;;;;;23.33;65.32;101068.34;5097454;27;45253;-44
2023/06/12 00:30:58;;;;;;;;;17.75;17.25;;;;;23.34;65.02;101061.84;5097201;27;45231;-44
2023/06/12 00:33:24;;;;;;;;;22.25;19.75;;;;;23.27;65.36;101044.81;5097138;27;45449;-46
2023/06/12 00:35:50;;;;;;;;;18.75;15.50;;;;;23.32;65.22;101047.69;5097104;27;45288;-47
2023/06/12 00:38:16;;;;;;;;;18.00;17.50;;;;;23.29;65.15;101046.25;5096925;27;45273;-47
2023/06/12 00:40:42;;;;;;;;;15.25;14.75;;;;;23.11;65.47;101019.06;5097591;27;45442;-47
2023/06/12 00:43:08;;;;;;;;;16.25;14.00;;;;;23.29;65.27;101046.25;5096945;27;45896;-46
2023/06/12 00:45:35;;;;;;;;;17.80;16.60;;;;;23.29;65.02;101050.84;5097017;27;45487;-47
2023/06/12 00:48:01;;;;;;;;;15.75;14.25;;;;;23.27;65.74;101044.81;5097168;27;45464;-47
2023/06/12 00:50:27;;;;;;;;;13.25;13.25;;;;;23.25;65.34;101049.63;5097314;27;45385;-48
2023/06/12 00:52:54;;;;;;;;;19.50;16.25;;;;;23.25;65.55;101052.34;5096997;27;46198;-47
2023/06/12 00:55:19;;;;;;;;;14.60;12.20;;;;;23.16;65.82;101038.22;5097025;27;45210;-46
2023/06/12 00:57:46;;;;;;;;;16.00;12.75;;;;;23.25;65.58;101049.63;5097103;27;45447;-49
2023/06/12 01:00:14;;;;;;;;;16.00;14.50;;;;;23.29;65.65;101053.56;5101041;27;45395;-48
2023/06/12 01:02:44;;;;;;;;;17.00;14.75;;;;;23.28;65.34;101049.19;5100432;27;47132;-46
2023/06/12 01:05:12;;;;;;;;;13.80;12.00;;;;;23.16;65.37;101044.47;5100530;27;45488;-46
2023/06/12 01:07:47;;;;;;;;;16.40;15.40;;;;;23.28;65.10;101043.75;5100552;27;45310;-45
2023/06/12 01:10:30;;;;;;;;;13.00;11.00;;;;;23.29;64.97;101040.81;5100742;27;45515;-44
2023/06/12 01:12:58;;;;;;;;;12.25;12.00;;;;;23.28;64.54;101041.88;5100086;27;47111;-48
2023/06/12 01:15:24;;;;;;;;;14.00;11.40;;;;;23.28;64.47;101046.47;5100244;27;45448;-49
2023/06/12 01:17:49;;;;;;;;;13.75;11.75;;;;;23.25;64.07;101049.63;5100288;27;45381;-49
2023/06/12 01:20:17;;;;;;;;;14.00;12.75;;;;;23.21;63.34;101045.69;5100550;27;45412;-49
2023/06/12 01:22:54;;;;;;;;;14.50;11.25;;;;;23.11;63.09;101038.06;5100298;27;45272;-46
2023/06/12 01:25:38;;;;;;;;;12.00;10.00;;;;;23.10;62.96;101041.84;5098864;27;45204;-49
2023/06/12 01:28:43;;;;;;;;;12.60;10.40;;;;;23.04;63.23;101051.69;5100003;27;45684;-47
2023/06/12 01:31:21;;;;;;;;;10.25;10.25;;;;;23.00;63.38;101041.50;5100389;27;45517;-48
2023/06/12 01:34:03;;;;;;;;;14.75;12.75;;;;;22.95;63.74;101031.31;5100102;27;46363;-45
2023/06/12 01:36:36;;;;;;;;;10.80;10.40;;;;;22.98;63.95;101035.47;5099950;27;45269;-46
2023/06/12 01:39:04;;;;;;;;;14.75;12.50;;;;;22.99;63.90;101027.09;5100146;27;45403;-48
2023/06/12 01:41:31;;;;;;;;;14.75;11.25;;;;;22.98;63.63;101033.59;5099033;27;45336;-46
2023/06/12 01:43:56;;;;;;;;;13.25;11.75;;;;;22.96;63.65;101035.69;5099564;27;46258;-48
2023/06/12 01:46:21;;;;;;;;;20.25;14.50;;;;;22.95;63.64;101035.91;5099796;27;45374;-46
2023/06/12 01:48:47;;;;;;;;;10.50;10.25;;;;;22.94;63.93;101036.97;5100186;27;45410;-46
2023/06/12 01:51:12;;;;;;;;;10.75;8.00;;;;;22.96;64.08;101032.13;5099878;27;45434;-47
2023/06/12 01:53:37;;;;;;;;;14.25;13.00;;;;;22.89;63.97;101014.00;5098167;27;49753;-50
2023/06/12 01:56:03;;;;;;;;;12.25;10.75;;;;;23.01;63.79;101026.91;5098238;27;45440;-49
2023/06/12 01:58:28;;;;;;;;;14.75;11.50;;;;;23.01;64.00;101030.44;5099725;27;45314;-48
2023/06/12 02:00:55;;;;;;;;;17.00;14.00;;;;;23.01;64.23;101027.72;5099946;27;45318;-48
2023/06/12 02:03:22;;;;;;;;;14.75;8.75;;;;;22.99;64.36;101024.38;5099678;27;46366;-49
2023/06/12 02:05:48;;;;;;;;;11.00;11.00;;;;;23.03;64.37;101032.91;5099382;27;45209;-45
2023/06/12 02:08:14;;;;;;;;;9.50;9.50;;;;;23.04;64.42;101038.13;5099242;27;45238;-47
2023/06/12 02:10:39;;;;;;;;;12.00;11.50;;;;;22.98;64.01;101036.31;5099500;27;45425;-46
2023/06/12 02:13:04;;;;;;;;;16.00;15.00;;;;;23.05;64.28;101042.50;5099148;27;46192;-47
2023/06/12 02:15:30;;;;;;;;;16.50;14.00;;;;;23.03;64.09;101047.31;5098108;27;45351;-46
2023/06/12 02:17:55;;;;;;;;;20.00;18.00;;;;;23.02;64.47;101055.69;5098718;27;45438;-48
2023/06/12 02:20:21;;;;;;;;;18.25;18.25;;;;;23.00;64.58;101052.34;5099442;27;45316;-46
2023/06/12 02:22:46;;;;;;;;;22.75;17.25;;;;;22.99;64.65;101054.22;5099301;27;46216;-48
2023/06/12 02:25:11;;;;;;;;;21.00;17.00;;;;;22.94;64.46;101056.78;5098828;27;45599;-52
2023/06/12 02:27:37;;;;;;;;;21.75;16.25;;;;;22.92;64.48;101058.88;5099196;27;45345;-46
2023/06/12 02:30:03;;;;;;;;;17.50;15.75;;;;;22.88;64.66;101057.63;5099405;27;45384;-48
2023/06/12 02:32:28;;;;;;;;;18.25;17.25;;;;;22.84;64.60;101059.13;5099039;27;46952;-48
2023/06/12 02:34:54;;;;;;;;;19.00;15.75;;;;;22.80;64.78;101060.63;5099076;27;45888;-45
2023/06/12 02:37:20;;;;;;;;;18.75;14.50;;;;;22.76;64.17;101059.41;5099168;27;45392;-47
2023/06/12 02:39:45;;;;;;;;;18.25;13.50;;;;;22.75;64.57;101060.44;5099285;27;45450;-46
2023/06/12 02:42:11;;;;;;;;;14.00;14.00;;;;;22.72;64.74;101066.31;5098973;27;46254;-47
2023/06/12 02:44:36;;;;;;;;;25.00;21.25;;;;;22.70;64.74;101054.84;5098927;27;45499;-46
2023/06/12 02:47:01;;;;;;;;;15.25;15.25;;;;;22.68;64.55;101055.06;5099126;27;45425;-47
2023/06/12 02:49:29;;;;;;;;;12.00;11.00;;;;;22.66;64.40;101047.13;5099263;27;45394;-47
2023/06/12 02:51:55;;;;;;;;;14.00;14.00;;;;;22.66;64.47;101049.00;5098672;27;46312;-47
2023/06/12 02:54:23;;;;;;;;;17.25;12.75;;;;;22.64;64.45;101043.00;5098693;27;45314;-47
2023/06/12 02:56:49;;;;;;;;;21.25;17.75;;;;;22.56;64.40;101038.66;5098768;27;45389;-46
2023/06/12 02:59:16;;;;;;;;;29.00;20.75;;;;;22.58;64.24;101039.25;5098756;27;45388;-46
2023/06/12 03:01:43;;;;;;;;;34.67;31.33;;;;;22.55;64.30;101041.59;5098672;27;46201;-45
2023/06/12 03:04:15;;;;;;;;;21.50;14.50;;;;;22.55;64.25;101034.28;5098674;27;45572;-45
2023/06/12 03:06:41;;;;;;;;;13.25;13.25;;;;;22.51;64.10;101043.91;5098683;27;45315;-46
2023/06/12 03:09:08;;;;;;;;;16.00;11.50;;;;;22.46;63.98;101030.19;5098917;27;45349;-46
2023/06/12 03:11:35;;;;;;;;;18.25;16.00;;;;;22.48;64.50;101044.34;5098480;27;47126;-45
2023/06/12 03:14:00;;;;;;;;;17.25;12.75;;;;;22.49;64.11;101043.28;5098343;27;45503;-46
2023/06/12 03:16:26;;;;;;;;;13.50;11.75;;;;;22.48;64.52;101041.63;5098689;27;45324;-47
2023/06/12 03:18:51;;;;;;;;;15.00;11.75;;;;;22.48;64.34;101038.91;5098799;27;45255;-48
2023/06/12 03:21:17;;;;;;;;;14.75;13.00;;;;;22.48;64.38;101044.34;5097548;27;45989;-49
2023/06/12 03:23:42;;;;;;;;;19.25;13.00;;;;;22.48;64.67;101048.94;5098446;27;45462;-46
2023/06/12 03:26:08;;;;;;;;;14.25;12.50;;;;;22.48;64.46;101041.63;5098070;27;45337;-47
2023/06/12 03:28:36;;;;;;;;;15.25;13.50;;;;;22.50;64.36;101049.53;5098522;27;45479;-49
2023/06/12 03:31:01;;;;;;;;;15.75;12.50;;;;;22.43;64.56;101036.03;5098247;27;45358;-45
2023/06/12 03:33:27;;;;;;;;;19.50;13.75;;;;;22.51;64.62;101051.22;5098424;27;45273;-46
2023/06/12 03:35:52;;;;;;;;;16.00;13.25;;;;;22.53;65.09;101049.94;5098116;27;45373;-46
2023/06/12 03:38:17;;;;;;;;;13.00;11.75;;;;;22.54;64.98;101045.34;5098390;27;45524;-45
2023/06/12 03:40:43;;;;;;;;;15.00;14.00;;;;;22.55;64.67;101047.84;5098112;27;45299;-46
2023/06/12 03:43:08;;;;;;;;;17.25;14.25;;;;;22.51;64.68;101038.50;5097865;27;49513;-45
2023/06/12 03:45:33;;;;;;;;;12.75;10.50;;;;;22.54;64.44;101046.16;5097979;27;45562;-45
2023/06/12 03:47:59;;;;;;;;;39.00;31.33;;;;;22.55;64.52;101041.59;5098229;27;45310;-47
2023/06/12 03:50:25;;;;;;;;;62.67;48.67;;;;;22.55;64.78;101047.03;5097656;27;46113;-47
2023/06/12 03:52:51;;;;;;;;;17.25;13.50;;;;;22.56;64.69;101057.63;5098093;27;45270;-46
2023/06/12 03:55:16;;;;;;;;;20.00;17.75;;;;;22.57;64.69;101053.88;5097854;27;45254;-45
2023/06/12 03:57:41;;;;;;;;;13.25;10.00;;;;;22.56;64.70;101060.34;5098129;27;45242;-47
2023/06/12 04:00:08;;;;;;;;;19.75;15.50;;;;;22.55;64.74;101056.00;5097653;27;46939;-47
2023/06/12 04:02:34;;;;;;;;;19.00;17.00;;;;;22.54;65.02;101053.47;5097568;27;45287;-45
2023/06/12 04:05:00;;;;;;;;;15.25;13.75;;;;;22.44;64.97;101045.81;5097826;27;45350;-46
2023/06/12 04:07:26;;;;;;;;;17.75;13.50;;;;;22.54;64.46;101048.06;5096500;27;45278;-46
2023/06/12 04:09:51;;;;;;;;;21.75;14.25;;;;;22.50;64.64;101042.25;5097417;27;46333;-46
2023/06/12 04:12:16;;;;;;;;;15.50;14.00;;;;;22.55;64.00;101042.44;5097606;27;45314;-47
2023/06/12 04:14:42;;;;;;;;;13.50;12.25;;;;;22.55;63.79;101041.59;5097542;27;45302;-45
2023/06/12 04:17:07;;;;;;;;;12.50;11.00;;;;;22.56;63.89;101043.25;5097944;27;45336;-45
2023/06/12 04:19:32;;;;;;;;;15.00;13.00;;;;;22.57;63.33;101043.03;5097493;27;47230;-48
2023/06/12 04:22:00;;;;;;;;;12.75;12.50;;;;;22.56;63.31;101035.94;5097586;27;45220;-45
2023/06/12 04:24:30;;;;;;;;;18.00;15.00;;;;;22.56;63.41;101032.41;5098082;27;45353;-46
2023/06/12 04:27:00;;;;;;;;;15.50;12.00;;;;;22.57;63.39;101037.59;5097586;27;45322;-47
2023/06/12 04:29:26;;;;;;;;;12.25;12.25;;;;;22.54;63.76;101026.34;5097520;27;45569;-45
2023/06/12 04:31:54;;;;;;;;;18.00;13.75;;;;;22.61;63.72;101038.81;5098117;27;45305;-48
2023/06/12 04:34:20;;;;;;;;;14.00;12.25;;;;;22.62;63.61;101035.06;5101310;27;45389;-45
2023/06/12 04:36:46;;;;;;;;;16.00;14.75;;;;;22.64;63.88;101045.72;5101333;27;45318;-47
2023/06/12 04:39:13;;;;;;;;;12.25;11.25;;;;;22.65;63.79;101045.47;5100994;27;46109;-45
2023/06/12 04:41:40;;;;;;;;;20.50;13.50;;;;;22.68;63.81;101044.22;5100941;27;45336;-47
2023/06/12 04:44:06;;;;;;;;;16.00;15.50;;;;;22.70;63.64;101046.69;5101142;27;45291;-45
2023/06/12 04:46:32;;;;;;;;;20.50;17.25;;;;;22.73;64.28;101051.69;5101212;27;45478;-45
2023/06/12 04:48:59;;;;;;;;;21.75;17.00;;;;;22.73;63.90;101049.81;5100855;27;46159;-46
2023/06/12 04:51:24;;;;;;;;;19.50;15.00;;;;;22.78;64.06;101051.88;5100752;27;45445;-44
2023/06/12 04:53:53;;;;;;;;;20.25;14.50;;;;;22.73;64.02;101044.38;5100690;27;45474;-46
2023/06/12 04:56:21;;;;;;;;;18.50;15.25;;;;;22.82;64.03;101062.06;5099897;27;45384;-48
2023/06/12 04:58:47;;;;;;;;;16.00;15.25;;;;;22.84;63.92;101059.13;5100605;27;46062;-45
2023/06/12 05:01:14;;;;;;;;;16.00;15.00;;;;;22.89;63.66;101051.16;5100526;27;45280;-45
2023/06/12 05:03:40;;;;;;;;;19.25;17.75;;;;;22.93;63.78;101054.31;5100415;27;45450;-45
2023/06/12 05:06:07;;;;;;;;;22.25;18.75;;;;;22.93;63.38;101057.84;5100988;27;45457;-48
2023/06/12 05:08:32;;;;;;;;;14.75;14.50;;;;;22.96;63.51;101056.56;5099334;27;47398;-46
2023/06/12 05:10:58;;;;;;;;;20.25;18.50;;;;;22.99;63.47;101064.25;5100714;27;45164;-47
2023/06/12 05:13:23;;;;;;;;;16.00;13.75;;;;;22.98;63.34;101055.28;5100482;27;45345;-47
2023/06/12 05:15:48;;;;;;;;;14.75;12.00;;;;;22.98;63.33;101052.56;5100643;27;45201;-44
2023/06/12 05:18:14;;;;;;;;;19.25;16.00;;;;;23.01;63.06;101065.72;5100277;27;46915;-46
2023/06/12 05:20:39;;;;;;;;;17.75;13.50;;;;;23.04;62.92;101059.81;5100436;27;45336;-47
2023/06/12 05:23:05;;;;;;;;;15.25;14.50;;;;;23.08;62.92;101055.63;5100473;27;45188;-47
2023/06/12 05:25:30;;;;;;;;;18.25;15.00;;;;;23.10;63.07;101056.25;5100416;27;45383;-45
2023/06/12 05:27:56;;;;;;;;;18.75;14.00;;;;;23.15;62.71;101056.41;5100332;27;46156;-43
2023/06/12 05:30:21;;;;;;;;;18.25;15.50;;;;;23.18;62.59;101055.13;5100023;27;45374;-46
2023/06/12 05:32:47;;;;;;;;;24.25;19.75;;;;;23.24;62.57;101056.13;5100353;27;45323;-46
2023/06/12 05:35:12;;;;;;;;;24.75;17.75;;;;;23.25;62.07;101050.44;5100700;27;45313;-43
2023/06/12 05:37:37;;;;;;;;;15.75;15.75;;;;;23.33;62.07;101052.06;5099993;27;46031;-47
2023/06/12 05:40:05;;;;;;;;;19.50;17.50;;;;;23.36;61.98;101048.91;5100252;27;45390;-48
2023/06/12 05:42:30;;;;;;;;;17.25;13.25;;;;;23.38;61.70;101053.03;5100137;27;45382;-50
2023/06/12 05:44:56;;;;;;;;;22.50;18.25;;;;;23.29;61.61;101031.84;5099483;27;45317;-48
2023/06/12 05:47:21;;;;;;;;;14.25;13.50;;;;;23.45;61.75;101057.59;5099803;27;45526;-47
2023/06/12 05:49:47;;;;;;;;;19.25;15.50;;;;;23.43;61.39;101049.69;5099984;27;45378;-51
2023/06/12 05:52:12;;;;;;;;;17.00;14.75;;;;;23.48;61.28;101060.69;5100065;27;45832;-50
2023/06/12 05:54:37;;;;;;;;;17.00;16.25;;;;;23.49;61.09;101058.81;5100210;27;45236;-51
2023/06/12 05:57:03;;;;;;;;;23.25;19.50;;;;;23.48;61.02;101065.28;5099424;27;55123;-52
2023/06/12 05:59:28;;;;;;;;;22.75;21.00;;;;;23.42;61.17;101062.41;5099755;27;45444;-49
2023/06/12 06:01:57;;;;;;;;;17.75;17.00;;;;;23.42;61.57;101061.56;5099626;27;45270;-49
2023/06/12 06:04:22;;;;;;;;;16.00;14.75;;;;;23.44;61.12;101058.66;5099888;27;45523;-49
2023/06/12 06:06:48;;;;;;;;;18.25;16.50;;;;;23.32;60.90;101042.25;5099583;27;45317;-51
2023/06/12 06:09:16;;;;;;;;;18.25;13.00;;;;;23.48;61.22;101059.88;5099825;27;45409;-48
2023/06/12 06:11:42;;;;;;;;;16.75;15.25;;;;;23.49;61.00;101062.34;5099673;27;45281;-50
2023/06/12 06:14:07;;;;;;;;;14.00;11.00;;;;;23.57;60.63;101064.78;5099700;27;45489;-49
2023/06/12 06:16:32;;;;;;;;;15.75;12.00;;;;;23.63;60.54;101066.56;5099246;27;47000;-54
2023/06/12 06:18:58;;;;;;;;;16.75;13.25;;;;;23.71;60.01;101062.78;5099401;27;45236;-51
2023/06/12 06:21:23;;;;;;;;;15.00;12.25;;;;;23.76;60.05;101067.53;5099536;27;45212;-51
2023/06/12 06:23:48;;;;;;;;;15.00;12.75;;;;;23.80;60.08;101063.28;5099625;27;45246;-51
2023/06/12 06:26:14;;;;;;;;;14.25;12.75;;;;;23.87;59.70;101069.50;5098779;27;52253;-50
2023/06/12 06:28:39;;;;;;;;;15.50;14.00;;;;;23.95;59.76;101074.63;5099283;27;45234;-47
2023/06/12 06:31:06;;;;;;;;;12.00;12.00;;;;;24.01;59.69;101073.69;5099227;27;45332;-50
2023/06/12 06:33:32;;;;;;;;;14.50;12.25;;;;;24.05;59.08;101068.66;5099274;27;45296;-49
2023/06/12 06:35:58;;;;;;;;;13.00;12.25;;;;;24.09;59.05;101073.41;5099052;27;45359;-52
2023/06/12 06:38:24;;;;;;;;;16.00;15.25;;;;;24.13;59.09;101073.78;5099052;27;45364;-49
2023/06/12 06:40:51;;;;;;;;;16.25;15.75;;;;;24.16;58.50;101073.31;5099199;27;45284;-53
2023/06/12 06:43:16;;;;;;;;;15.75;11.25;;;;;24.19;58.46;101070.16;5097812;27;45261;-49
2023/06/12 06:45:42;;;;;;;;;15.75;11.25;;;;;24.15;58.30;101056.19;5098672;27;45971;-47
2023/06/12 06:48:08;;;;;;;;;18.25;12.75;;;;;24.24;58.28;101067.56;5098951;27;45406;-50
2023/06/12 06:50:33;;;;;;;;;18.75;15.00;;;;;24.23;57.93;101056.91;5099040;27;45420;-51
2023/06/12 06:52:58;;;;;;;;;18.50;14.50;;;;;24.29;57.66;101064.16;5099184;27;45353;-47
2023/06/12 06:55:24;;;;;;;;;11.75;11.75;;;;;24.30;57.98;101068.53;5097585;27;45318;-50
2023/06/12 06:57:50;;;;;;;;;13.75;13.25;;;;;24.31;58.10;101065.59;5098643;27;45405;-53
2023/06/12 07:00:16;;;;;;;;;13.00;13.00;;;;;24.30;58.12;101065.81;5098750;27;45338;-51
2023/06/12 07:02:43;;;;;;;;;19.25;16.25;;;;;24.38;57.87;101063.63;5099009;27;45428;-48
2023/06/12 07:05:08;;;;;;;;;14.25;14.00;;;;;24.43;57.26;101067.56;5098608;27;46577;-46
2023/06/12 07:07:34;;;;;;;;;14.00;12.50;;;;;24.49;57.28;101067.47;5098732;27;45377;-49
2023/06/12 07:09:59;;;;;;;;;16.75;13.25;;;;;24.49;57.22;101066.66;5098772;27;45464;-47
2023/06/12 07:12:25;;;;;;;;;12.00;12.00;;;;;24.51;57.41;101062.63;5098855;27;45414;-52
2023/06/12 07:14:50;;;;;;;;;16.00;13.25;;;;;24.51;56.92;101068.06;5098265;27;46125;-51
2023/06/12 07:17:15;;;;;;;;;18.00;13.75;;;;;24.47;57.39;101064.16;5098462;27;45513;-51
2023/06/12 07:19:41;;;;;;;;;15.00;14.00;;;;;24.41;56.84;101065.09;5098668;27;45413;-50
2023/06/12 07:22:07;;;;;;;;;12.75;11.25;;;;;24.34;56.95;101069.75;5098621;27;45399;-49
2023/06/12 07:24:32;;;;;;;;;15.00;11.50;;;;;24.29;57.52;101072.31;5098278;27;45940;-51
2023/06/12 07:26:57;;;;;;;;;15.50;12.75;;;;;24.24;57.60;101070.28;5096756;27;45525;-52
2023/06/12 07:29:23;;;;;;;;;7.00;7.00;;;;;24.21;57.35;101069.91;5098358;27;48099;-50
2023/06/12 07:31:49;;;;;;;;;15.25;12.25;;;;;24.21;57.08;101068.03;5098336;27;45450;-52
2023/06/12 07:34:16;;;;;;;;;13.00;12.25;;;;;24.21;57.57;101075.34;5098021;27;46246;-49
2023/06/12 07:36:42;;;;;;;;;13.60;12.00;;;;;24.18;57.28;101075.81;5098099;27;45363;-47
2023/06/12 07:39:07;;;;;;;;;10.75;10.75;;;;;24.17;57.37;101074.16;5098179;27;45366;-46
2023/06/12 07:41:32;;;;;;;;;13.75;13.50;;;;;24.19;57.75;101074.75;5098598;27;45392;-47
2023/06/12 07:43:58;;;;;;;;;14.00;10.50;;;;;24.23;57.30;101076.78;5097961;27;46227;-48
2023/06/12 07:46:23;;;;;;;;;19.25;12.00;;;;;24.23;57.29;101063.22;5097732;27;45351;-50
2023/06/12 07:48:49;;;;;;;;;15.25;13.00;;;;;24.27;57.66;101069.00;5098191;27;45337;-52
2023/06/12 07:51:14;;;;;;;;;16.00;14.00;;;;;24.36;56.97;101064.91;5098145;27;45428;-46
2023/06/12 07:53:39;;;;;;;;;15.00;14.00;;;;;24.44;56.83;101069.22;5097916;27;47180;-51
2023/06/12 07:56:06;;;;;;;;;14.50;12.75;;;;;24.43;56.57;101041.19;5097923;27;45620;-48
2023/06/12 07:58:34;;;;;;;;;16.25;14.50;;;;;24.66;56.49;101073.09;5101035;27;45351;-51
2023/06/12 08:01:00;;;;;;;;;20.50;13.75;;;;;24.84;55.65;101067.56;5100460;27;45323;-47
2023/06/12 08:03:25;;;;;;;;;17.75;12.25;;;;;25.09;55.56;101061.16;5097869;27;47070;-52
2023/06/12 08:05:52;;;;;;;;;11.75;10.75;;;;;25.35;54.83;101068.03;5099893;27;45348;-47
2023/06/12 08:08:18;;;;;;;;;14.00;13.00;;;;;25.41;54.73;101060.78;5099603;27;45493;-52
2023/06/12 08:10:43;;;;;;;;;10.00;9.00;;;;;25.56;54.81;101069.31;5100849;27;45381;-48
2023/06/12 08:13:08;;;;;;;;;13.00;12.00;;;;;25.58;54.09;101062.56;5101243;27;45421;-49
2023/06/12 08:15:34;;;;;;;;;10.25;9.75;;;;;25.50;54.04;101060.22;5101145;27;45497;-48
2023/06/12 08:17:59;;;;;;;;;11.00;10.00;;;;;25.55;54.30;101063.03;5095910;27;45368;-50
2023/06/12 08:20:25;;;;;;;;;14.25;12.25;;;;;25.61;54.60;101053.06;5097762;27;45438;-52
2023/06/12 08:22:55;;;;;;;;;14.25;13.00;;;;;25.61;53.72;101058.53;5097045;27;45389;-47
2023/06/12 08:25:21;;;;;;;;;15.40;12.00;;;;;25.61;54.52;101053.06;5097136;27;45326;-52
2023/06/12 08:27:48;;;;;;;;;11.60;11.20;;;;;25.53;54.27;101037.91;5097371;27;45236;-51
2023/06/12 08:30:14;;;;;;;;;13.80;12.20;;;;;25.64;53.28;101037.09;5098167;27;45331;-50
2023/06/12 08:32:39;;;;;;;;;13.75;12.50;;;;;25.74;53.33;101041.91;5096173;27;46254;-50
2023/06/12 08:35:05;;;;;;;;;13.25;11.00;;;;;25.81;53.16;101031.75;5097171;27;49676;-51
2023/06/12 08:37:32;;;;;;;;;13.25;11.25;;;;;25.91;53.15;101036.56;5097873;27;45429;-52
2023/06/12 08:39:58;;;;;;;;;12.20;10.40;;;;;25.97;52.87;101034.81;5097582;27;45331;-51
2023/06/12 08:42:23;;;;;;;;;13.00;12.75;;;;;25.99;53.27;101032.66;5097285;27;47096;-52
2023/06/12 08:44:57;;;;;;;;;16.25;15.25;;;;;26.01;53.04;101039.53;5097357;27;45406;-50
2023/06/12 08:47:22;;;;;;;;;11.40;11.40;;;;;26.03;53.46;101031.09;5097180;27;45407;-52
2023/06/12 08:49:48;;;;;;;;;13.25;10.00;;;;;26.05;53.13;101039.88;5096271;27;45412;-51
2023/06/12 08:52:14;;;;;;;;;10.00;8.50;;;;;26.11;52.47;101039.72;5097192;27;45353;-48
2023/06/12 08:54:41;;;;;;;;;14.00;11.25;;;;;26.03;52.77;101021.00;5097413;27;45254;-48
2023/06/12 08:57:08;;;;;;;;;10.80;10.80;;;;;26.10;52.48;101035.34;5097450;27;45299;-48
2023/06/12 08:59:34;;;;;;;;;15.60;10.00;;;;;26.03;52.93;101033.81;5097602;27;45354;-49
2023/06/12 09:02:00;;;;;;;;;16.75;12.75;;;;;26.00;52.70;101034.28;5097055;27;45471;-47
2023/06/12 09:04:48;;;;;;;;;17.00;15.60;;;;;25.93;52.89;101041.81;5096939;27;45402;-49
2023/06/12 09:07:18;;;;;;;;;14.40;13.20;;;;;25.86;53.76;101028.31;5086024;27;45425;-52
2023/06/12 09:09:45;;;;;;;;;22.75;18.75;;;;;25.77;53.53;101036.03;5097229;27;45588;-48
2023/06/12 09:12:13;;;;;;;;;18.00;16.40;;;;;25.73;53.36;101037.53;5096998;27;46000;-50
2023/06/12 09:14:48;;;;;;;;;19.00;17.40;;;;;25.62;53.42;101038.41;5097052;27;45322;-49
2023/06/12 09:17:13;;;;;;;;;16.00;14.80;;;;;25.49;53.74;101030.47;5096898;27;45416;-52
2023/06/12 09:19:44;;;;;;;;;14.75;12.50;;;;;25.38;54.40;101026.69;5098858;27;45526;-47
2023/06/12 09:22:10;;;;;;;;;16.20;14.80;;;;;25.28;54.23;101013.69;5100484;27;45335;-47
2023/06/12 09:24:37;;;;;;;;;17.60;16.60;;;;;25.33;54.83;101024.69;5100585;27;45394;-45
2023/06/12 09:27:03;;;;;;;;;22.60;18.60;;;;;25.39;54.25;101028.34;5100311;27;45488;-47
2023/06/12 09:29:30;;;;;;;;;17.00;13.25;;;;;25.50;53.73;101032.16;5100747;27;45331;-49
2023/06/12 09:31:58;;;;;;;;;20.75;18.25;;;;;25.67;54.01;101037.69;5100000;27;46496;-52
2023/06/12 09:34:24;;;;;;;;;19.60;18.00;;;;;25.81;54.15;101036.38;5100299;27;45449;-51
2023/06/12 09:36:49;;;;;;;;;16.50;15.50;;;;;25.87;53.15;101032.69;5100387;27;45520;-51
2023/06/12 09:39:15;;;;;;;;;20.25;18.00;;;;;25.95;53.21;101032.28;5100421;27;45537;-50
2023/06/12 09:41:48;;;;;;;;;18.00;14.25;;;;;26.00;53.31;101031.56;5099939;27;46167;-52
2023/06/12 09:44:20;;;;;;;;;16.80;16.40;;;;;25.93;53.01;101029.00;5099991;27;45506;-50
2023/06/12 09:46:45;;;;;;;;;18.40;16.60;;;;;25.78;53.48;101039.56;5099701;27;45233;-46
2023/06/12 09:49:13;;;;;;;;;16.75;16.75;;;;;25.69;54.04;101043.72;5099950;27;45292;-50
2023/06/12 09:51:41;;;;;;;;;21.00;19.00;;;;;25.68;53.61;101042.06;5099572;27;45421;-47
2023/06/12 09:54:09;;;;;;;;;15.80;15.80;;;;;25.92;54.14;101042.88;5098663;27;45426;-49
2023/06/12 09:56:35;;;;;;;;;20.20;17.40;;;;;26.37;52.93;101045.66;5099755;27;45276;-49
2023/06/12 09:59:03;;;;;;;;;22.25;20.25;;;;;26.60;52.24;101040.13;5100069;27;45380;-49
2023/06/12 10:01:29;;;;;;;;;18.20;15.00;;;;;26.62;52.20;101042.59;5099418;27;46260;-52
2023/06/12 10:03:58;;;;;;;;;24.75;16.50;;;;;26.61;52.17;101044.50;5099315;27;45334;-48
2023/06/12 10:06:26;;;;;;;;;15.40;14.40;;;;;26.54;52.09;101035.63;5099956;27;45320;-49
2023/06/12 10:08:54;;;;;;;;;21.00;16.75;;;;;26.55;52.00;101037.31;5099996;27;45364;-48
2023/06/12 10:11:20;;;;;;;;;15.00;13.00;;;;;26.53;52.31;101039.44;5099383;27;47159;-49
2023/06/12 10:13:46;;;;;;;;;20.00;16.50;;;;;26.54;52.78;101043.00;5099557;27;45395;-48
2023/06/12 10:16:14;;;;;;;;;20.50;18.25;;;;;26.56;52.41;101047.16;5099460;27;45323;-50
2023/06/12 10:18:40;;;;;;;;;23.00;20.75;;;;;26.57;52.55;101039.78;5098157;27;45411;-52
2023/06/12 10:21:06;;;;;;;;;19.20;18.60;;;;;26.89;52.81;101037.34;5099369;27;46240;-50
2023/06/12 10:23:33;;;;;;;;;18.75;15.00;;;;;27.06;51.92;101029.97;5099238;27;45237;-48
2023/06/12 10:25:59;;;;;;;;;19.80;15.00;;;;;27.09;51.29;101018.59;5099158;27;45392;-49
2023/06/12 10:28:24;;;;;;;;;20.20;16.80;;;;;27.24;51.65;101037.09;5099388;27;45519;-51
2023/06/12 10:31:12;;;;;;;;;16.25;16.25;;;;;27.39;51.53;101033.78;5098874;27;46309;-50
2023/06/12 10:33:57;;;;;;;;;18.80;17.40;;;;;27.40;50.69;101029.13;5098945;27;45448;-48
2023/06/12 10:36:23;;;;;;;;;23.20;21.60;;;;;27.26;51.07;101029.50;5099151;27;45366;-49
2023/06/12 10:38:49;;;;;;;;;23.25;19.75;;;;;27.01;50.97;101024.44;5099621;27;45334;-49
2023/06/12 10:41:33;;;;;;;;;19.50;18.00;;;;;26.81;51.73;101033.13;5098788;27;45967;-51
2023/06/12 10:43:58;;;;;;;;;19.40;17.00;;;;;26.60;52.43;101018.31;5097801;27;45508;-50
2023/06/12 10:46:41;;;;;;;;;23.75;22.75;;;;;26.59;52.11;101030.28;5099020;27;45171;-50
2023/06/12 10:49:06;;;;;;;;;22.25;22.25;;;;;26.46;52.59;101033.31;5099312;27;45400;-50
2023/06/12 10:51:33;;;;;;;;;23.00;21.25;;;;;26.31;52.77;101024.84;5099006;27;45375;-48
2023/06/12 10:54:03;;;;;;;;;24.40;21.40;;;;;26.32;52.97;101016.41;5099045;27;45361;-47
2023/06/12 10:56:28;;;;;;;;;23.20;21.00;;;;;26.34;52.89;101032.53;5099036;27;45243;-49
2023/06/12 10:58:57;;;;;;;;;11.00;11.00;;;;;26.30;53.50;101021.28;5099101;27;45401;-49
2023/06/12 11:01:23;;;;;;;;;15.80;15.40;;;;;26.24;53.17;101016.78;5098680;27;47390;-49
2023/06/12 11:03:50;;;;;;;;;22.60;20.60;;;;;26.25;53.13;101015.75;5098423;27;45376;-54
2023/06/12 11:06:15;;;;;;;;;18.40;17.40;;;;;26.34;52.96;101027.06;5097509;27;45293;-47
2023/06/12 11:08:41;;;;;;;;;17.25;17.00;;;;;26.37;53.03;101021.09;5098891;27;45162;-49